Maryland METAR Reports


Distance/Direction noted is from Ellicott City, MD as the crow flies

KCBE - Cumberland - 118 miles WNW
Updated: Fri, 10/24/2014 3:36 AM
Partly Cloudy
Partly Cloudy
 Wind from NW
Wind: NW 7 mph
Temperature: 52°F
Dew Point: 43°F
Humidity: 72%
Barometer: 30.05 inHg
Clouds: Partly Cloudy
Visibility: 10 miles
Cloud Details: Partly Cloudy 2900 ft
2014/10/24 07:36 KCBE 240736Z AUTO 32006KT 10SM SCT029 11/06 A3005 RMK AO1
KHGR - Hagerstown - 57 miles NW
Updated: Fri, 10/24/2014 2:53 AM
Clear
Clear
 Wind from WNW
Wind: WNW 13 mph
Temperature: 52°F
Dew Point: 43°F
Humidity: 72%
Barometer: 29.95 inHg
Clouds: Clear
Visibility: 10 miles
2014/10/24 06:53 KHGR 240653Z AUTO 30011KT 10SM CLR 11/06 A2995 RMK AO2 SLP151 T01110056
 
KFDK - Frederick - 34 miles NW
Updated: Fri, 10/24/2014 3:35 AM
Clear
Clear
 Wind from NNW
Wind: NNW 6 mph
Temperature: 55°F
Dew Point: 41°F
Humidity: 59%
Barometer: 29.97 inHg
Clouds: Clear
Visibility: 10 miles
2014/10/24 07:35 KFDK 240735Z AUTO 34005KT 10SM CLR 13/05 A2997 RMK AO2
KGAI - Gaithersburg - 26 miles SW
Updated: Fri, 10/24/2014 3:35 AM
Clear
Clear
 Wind from NW
Wind: NW 8 mph, Gust: 18 mph
Temperature: 52°F
Dew Point: 39°F
Humidity: 62%
Barometer: 29.95 inHg
Clouds: Clear
Visibility: 10 miles
2014/10/24 07:35 KGAI 240735Z 31007G16KT 300V010 10SM CLR 11/04 A2995 RMK AO1
 
KBWI - BWI Airport - 15 miles SE
Updated: Fri, 10/24/2014 2:54 AM
Few Clouds
Few Clouds
 Wind from W
Wind: W 12 mph
Temperature: 54°F
Dew Point: 39°F
Humidity: 58%
Barometer: 29.88 inHg
Clouds: Few Clouds
Visibility: 10 miles
Cloud Details: Few Clouds 4500 ft
2014/10/24 06:54 KBWI 240654Z 28010KT 10SM FEW045 12/04 A2988 RMK AO2 SLP118 T01220044
KNAK - Annapolis - 32 miles SSE
Updated: Fri, 10/24/2014 2:54 AM
Clear
Clear
 Wind from WNW
Wind: WNW 7 mph
Temperature: 57°F
Dew Point: 41°F
Humidity: 55%
Barometer: 29.88 inHg
Clouds: Clear
Visibility: 10 miles
2014/10/24 06:54 KNAK 240654Z AUTO 30006KT 10SM CLR 14/05 A2988 RMK AO2 SLP121 T01390050
 
KESN - Easton - 63 miles SE
Updated: Fri, 10/24/2014 3:49 AM
Overcast
Overcast
 Wind from NNW
Wind: NNW 13 mph, Gust: 18 mph
Temperature: 59°F
Dew Point: 46°F
Humidity: 63%
Barometer: 29.90 inHg
Clouds: Overcast
Visibility: 10 miles
Cloud Details: Overcast 5000 ft
2014/10/24 07:49 KESN 240749Z AUTO 33011G16KT 10SM OVC050 15/08 A2990 RMK AO2 T01450076
KSBY - Salisbury - 112 miles SE
Updated: Fri, 10/24/2014 2:54 AM
Clear
Clear
 Wind from W
Wind: W 3 mph
Temperature: 54°F
Dew Point: 46°F
Humidity: 77%
Barometer: 29.86 inHg
Clouds: Clear
Visibility: 10 miles
2014/10/24 06:54 KSBY 240654Z AUTO 26003KT 10SM CLR 12/08 A2986 RMK AO2 SLP112 T01220078